Main page
METAR-TAF:

METAR-TAF

Airports :

Tehran Imam Khomeini International Airport

Tehran, Iran

latitude: 35-24-58N, longitude: 51-09-08E, elevation: 1007 m

Current weather observation

The report was made 18 minutes ago, at 14:00 UTC
Wind 12 kt from the East
Temperature 41°C
Humidity 8%
Pressure 1002 hPa
Visibility 10 km or more
no clouds below 1500 m and no cumulonimbus

METAR: OIIE 181400Z 09012KT CAVOK 41/00 Q1002

Time: 18:48 (14:18 UTC)

Forecast

The report was made 2 hours and 58 minutes ago, at 11:20 UTC
Forecast valid from 18 at 12 UTC to 19 at 18 UTC
Wind 6 kt from the Northwest
Visibility: 8000 m
Temporary
from 18 at 12 UTC to 18 at 18 UTC
Wind 14 kt from the Northwest
Becoming
from 19 at 03 UTC to 19 at 05 UTC
Wind 10 kt from the Northwest

TAF: OIIE 181120Z 1812/1918 31003MPS 8000 NSC TEMPO 1812/1818 31007MPS BECMG 1903/1905 31005MPS

Weather observations and forecasts of more than 4000 airports (METAR and TAF reports).

The available stations are represented by yellow and red dots on the map.

Hover mouse over dot to see the name of the station.

Then click to see weather observations and forecasts.

To change the map : click on the green buttons with a black cross to zoom in, on the green button with a dash to zoom out, or on the green arrows for adjacent maps.


METAR-TAF: